»·PEaware :: N989Z KLAX-KSNA

N989Z :: KLAX-KSNA

FLIGHT INFORMATION

Flight Status: Arrived
Operator: Privately registered:
United States
More flights under this callsign
Pilot: Tyler C. (3191)
Aircraft: BEECH AIRCRAFT BARON
(BE58)
More flights by this aircraft type
Origin: KLAX Los Angeles Intl
United States
Destination: KSNA John Wayne-Orange Co
United States
More flights between these airports :: More routes between these airports
Route: SLI7 SLI
File this flight plan on PilotEdge
Remarks: I-6 RATING
Altitude:
(Current/Filed)
4,000ft
Speed:
(Current/Filed)
250kts
Departed: 21-Apr-19 01:41 PM
Arrived: 21-Apr-19 02:14 PM
Distance/Time
Traveled:
31nm/0:33
Distance/Time
To Go:
Arrived

Flight Plot

Page will automatically refresh every two minutes.


Map Options




Map Legend


Flown Route
Filed Route
Departure Airport
Arrival Airport
Navaid (VOR, NDB)
Fix

Horizontal Profiles

Position Reports

Time Latitude Longitude Heading Altitude Ground
Speed
21-Apr-19 13:25 33.933907 -118.387687 173 109ft 0kts
21-Apr-19 13:26 33.933907 -118.387687 173 109ft 0kts
21-Apr-19 13:27 33.933907 -118.387687 173 109ft 0kts
21-Apr-19 13:28 33.933907 -118.387687 173 109ft 0kts
21-Apr-19 13:29 33.933907 -118.387687 173 109ft 0kts
21-Apr-19 13:30 33.934083 -118.387619 343 109ft 5kts
21-Apr-19 13:31 33.934311 -118.387723 342 109ft 0kts
21-Apr-19 13:32 33.934311 -118.387723 342 109ft 0kts
21-Apr-19 13:33 33.934323 -118.387728 343 109ft 2kts
21-Apr-19 13:34 33.935042 -118.387865 352 109ft 0kts
21-Apr-19 13:35 33.935042 -118.387865 352 109ft 0kts
21-Apr-19 13:36 33.935405 -118.387850 21 109ft 9kts
21-Apr-19 13:37 33.936040 -118.383582 82 109ft 14kts
21-Apr-19 13:38 33.936484 -118.382774 2 109ft 0kts
21-Apr-19 13:39 33.937226 -118.383138 293 109ft 16kts
21-Apr-19 13:40 33.933195 -118.418851 267 783ft 144kts
21-Apr-19 13:41 33.914831 -118.459039 212 1679ft 147kts
21-Apr-19 13:42 33.875897 -118.466749 172 2253ft 149kts
21-Apr-19 13:43 33.840396 -118.439935 142 3251ft 153kts
21-Apr-19 13:44 33.806185 -118.411050 142 3991ft 142kts
21-Apr-19 13:45 33.769992 -118.380335 142 4000ft 178kts
21-Apr-19 13:46 33.728475 -118.344745 142 3990ft 179kts
21-Apr-19 13:47 33.689350 -118.311291 142 3992ft 168kts
21-Apr-19 13:48 33.651874 -118.278634 126 3987ft 164kts
21-Apr-19 13:49 33.664380 -118.235620 46 3993ft 147kts
21-Apr-19 13:50 33.690141 -118.196872 47 3992ft 148kts
21-Apr-19 13:51 33.715654 -118.158023 47 3990ft 148kts
21-Apr-19 13:52 33.741170 -118.119110 47 3985ft 148kts
21-Apr-19 13:53 33.766645 -118.080226 47 3984ft 148kts
21-Apr-19 13:54 33.789603 -118.038912 58 3984ft 150kts
21-Apr-19 13:55 33.807765 -117.994038 59 3668ft 145kts
21-Apr-19 13:56 33.824980 -117.951179 58 3376ft 129kts
21-Apr-19 13:57 33.840358 -117.913050 58 3449ft 131kts
21-Apr-19 13:58 33.855661 -117.874834 58 3453ft 123kts
21-Apr-19 13:59 33.872072 -117.834523 58 3451ft 141kts
21-Apr-19 14:00 33.889874 -117.791546 58 3444ft 144kts
21-Apr-19 14:01 33.907137 -117.747688 62 3445ft 146kts
21-Apr-19 14:02 33.929749 -117.711842 7 3448ft 136kts
21-Apr-19 14:03 33.967496 -117.713115 11 3440ft 138kts
21-Apr-19 14:04 33.961511 -117.676138 171 3446ft 160kts
21-Apr-19 14:05 33.929273 -117.706485 221 3441ft 156kts
21-Apr-19 14:06 33.904106 -117.725047 217 3414ft 158kts
21-Apr-19 14:07 33.865098 -117.749447 208 3392ft 160kts
21-Apr-19 14:08 33.825407 -117.773813 210 3393ft 159kts
21-Apr-19 14:09 33.788443 -117.797175 211 2573ft 132kts
21-Apr-19 14:10 33.756372 -117.817668 211 1785ft 133kts
21-Apr-19 14:11 33.724355 -117.837932 212 1023ft 115kts
21-Apr-19 14:12 33.694323 -117.856981 210 390ft 124kts
21-Apr-19 14:13 33.675901 -117.869647 297 60ft 12kts
21-Apr-19 14:14 33.676499 -117.870870 118 60ft 0kts
21-Apr-19 14:15 33.676499 -117.870870 118 60ft 0kts
21-Apr-19 14:16 33.676499 -117.870870 118 60ft 0kts

Navigation Log

Ident Type
Flight plan parsing failed, navigation log unavailable